createdAt,value
2023-04-05T00:02:18.769Z,1.33
2023-04-05T00:06:02.637Z,1.35
2023-04-05T00:09:45.322Z,1.29
2023-04-05T00:13:27.945Z,1.23
2023-04-05T00:17:11.987Z,1.17
2023-04-05T00:20:56.681Z,1.14
2023-04-05T00:24:41.992Z,1.13
2023-04-05T00:28:24.693Z,1.08
2023-04-05T00:32:07.382Z,1.07
2023-04-05T00:35:50.064Z,1.07
2023-04-05T00:39:34.103Z,1.04
2023-04-05T00:43:17.868Z,1.04
2023-04-05T00:47:00.546Z,1.02
2023-04-05T00:50:43.662Z,0.96
2023-04-05T00:54:26.602Z,0.94
2023-04-05T00:58:10.895Z,0.90
2023-04-05T01:02:02.314Z,0.85
2023-04-05T01:05:48.969Z,0.83
2023-04-05T01:09:39.072Z,0.83
2023-04-05T01:13:24.067Z,0.79
2023-04-05T01:17:09.581Z,0.73
2023-04-05T01:20:58.274Z,0.71
2023-04-05T01:24:52.881Z,0.72
2023-04-05T01:29:10.870Z,0.71
2023-04-05T01:33:06.632Z,0.72
2023-04-05T01:36:56.003Z,0.71
2023-04-05T01:40:39.902Z,0.66
2023-04-05T01:44:22.727Z,0.65
2023-04-05T01:48:07.543Z,0.62
2023-04-05T01:51:50.246Z,0.56
2023-04-05T01:55:32.902Z,0.55
2023-04-05T01:59:15.573Z,0.52
2023-04-05T02:02:58.294Z,0.48
2023-04-05T02:06:42.498Z,0.48
2023-04-05T02:10:25.697Z,0.47
2023-04-05T02:14:08.597Z,0.50
2023-04-05T02:17:54.053Z,0.50
2023-04-05T02:21:36.951Z,0.48
2023-04-05T02:25:21.159Z,0.48
2023-04-05T02:29:03.824Z,0.47
2023-04-05T02:32:46.918Z,0.39
2023-04-05T02:36:29.659Z,0.37
2023-04-05T02:40:14.926Z,0.32
2023-04-05T02:44:00.053Z,0.29
2023-04-05T02:47:42.737Z,0.28
2023-04-05T02:51:26.993Z,0.28
2023-04-05T02:55:09.905Z,0.34
2023-04-05T02:58:52.544Z,0.37
2023-04-05T03:02:37.625Z,0.33
2023-04-05T03:06:20.789Z,0.30
2023-04-05T03:10:04.997Z,0.34
2023-04-05T03:13:47.660Z,0.32
2023-04-05T03:17:30.442Z,0.29
2023-04-05T03:21:17.850Z,0.26
2023-04-05T03:25:00.547Z,0.28
2023-04-05T03:28:45.036Z,0.23
2023-04-05T03:32:27.755Z,0.27
2023-04-05T03:36:10.528Z,0.31
2023-04-05T03:39:54.584Z,0.29
2023-04-05T03:43:37.882Z,0.30
2023-04-05T03:47:20.872Z,0.33
2023-04-05T03:51:03.463Z,0.34
2023-04-05T03:54:46.099Z,0.34
2023-04-05T03:58:30.150Z,0.30
2023-04-05T04:02:12.935Z,0.28
2023-04-05T04:05:55.747Z,0.25
2023-04-05T04:09:38.541Z,0.21
2023-04-05T04:13:21.200Z,0.16
2023-04-05T04:17:05.363Z,0.11
2023-04-05T04:20:48.664Z,0.10
2023-04-05T04:24:32.545Z,0.09
2023-04-05T04:28:19.598Z,0.11
2023-04-05T04:32:02.313Z,0.09
2023-04-05T04:35:47.122Z,0.07
2023-04-05T04:39:31.461Z,0.09
2023-04-05T04:43:17.042Z,0.10
2023-04-05T04:46:59.680Z,0.06
2023-04-05T04:50:43.402Z,0.01
2023-04-05T04:54:29.355Z,-0.01
2023-04-05T04:58:12.856Z,-0.02
2023-04-05T05:01:55.671Z,0.02
2023-04-05T05:05:43.439Z,0.02
2023-04-05T05:09:27.534Z,0.03
2023-04-05T05:13:11.128Z,0.05
2023-04-05T05:16:54.882Z,0.06
2023-04-05T05:20:37.734Z,0.09
2023-04-05T05:24:20.641Z,0.12
2023-04-05T05:28:04.866Z,0.14
2023-04-05T05:31:47.488Z,0.14
2023-04-05T05:35:30.168Z,0.17
2023-04-05T05:39:12.864Z,0.16
2023-04-05T05:42:55.595Z,0.20
2023-04-05T05:46:39.595Z,0.25
2023-04-05T05:50:22.350Z,0.28
2023-04-05T05:54:05.210Z,0.15
2023-04-05T05:57:47.895Z,0.01
2023-04-05T06:01:30.585Z,-0.04
2023-04-05T06:05:14.591Z,-0.14
2023-04-05T06:08:57.257Z,-0.01
2023-04-05T06:12:39.898Z,0.26
2023-04-05T06:16:22.871Z,0.43
2023-04-05T06:20:06.405Z,0.61
2023-04-05T06:23:50.614Z,0.69
2023-04-05T06:27:33.267Z,0.77
2023-04-05T06:31:17.369Z,0.84
2023-04-05T06:35:01.348Z,0.88
2023-04-05T06:38:44.105Z,0.97
2023-04-05T06:42:28.322Z,0.99
2023-04-05T06:46:12.601Z,1.12
2023-04-05T06:49:55.407Z,1.15
2023-04-05T06:53:38.017Z,1.22
2023-04-05T06:57:20.705Z,1.32
2023-04-05T07:01:05.995Z,1.31
2023-04-05T07:04:49.126Z,1.38
2023-04-05T07:08:33.589Z,1.49
2023-04-05T07:12:16.206Z,1.54
2023-04-05T07:16:02.575Z,1.67
2023-04-05T07:19:46.757Z,1.80
2023-04-05T07:23:29.608Z,1.77
2023-04-05T07:27:12.227Z,1.78
2023-04-05T07:30:54.946Z,1.81
2023-04-05T07:34:38.980Z,1.90
2023-04-05T07:38:23.101Z,2.01
2023-04-05T07:42:06.350Z,2.12
2023-04-05T07:45:48.984Z,2.22
2023-04-05T07:49:31.658Z,2.18
2023-04-05T07:53:14.474Z,2.20
2023-04-05T07:56:58.547Z,2.32
2023-04-05T08:00:41.337Z,2.42
2023-04-05T08:04:26.196Z,2.52
2023-04-05T08:08:11.085Z,2.59
2023-04-05T08:11:53.706Z,2.65
2023-04-05T08:15:37.719Z,2.69
2023-04-05T08:19:20.383Z,2.79
2023-04-05T08:23:03.025Z,2.86
2023-04-05T08:26:46.052Z,2.94
2023-04-05T08:30:28.681Z,3.08
2023-04-05T08:34:12.690Z,3.12
2023-04-05T08:37:55.318Z,3.20
2023-04-05T08:41:42.531Z,3.35
2023-04-05T08:45:25.866Z,3.32
2023-04-05T08:49:11.749Z,3.36
2023-04-05T08:52:55.876Z,3.33
2023-04-05T08:56:39.391Z,3.49
2023-04-05T09:00:22.332Z,3.62
2023-04-05T09:04:07.882Z,3.75
2023-04-05T09:07:51.235Z,3.80
2023-04-05T09:11:35.841Z,3.93
2023-04-05T09:15:21.607Z,4.00
2023-04-05T09:19:04.325Z,4.10
2023-04-05T09:22:47.609Z,4.18
2023-04-05T09:26:31.950Z,4.28
2023-04-05T09:30:23.279Z,4.44
2023-04-05T09:34:06.898Z,4.59
2023-04-05T09:37:54.358Z,4.73
2023-04-05T09:41:37.708Z,4.94
2023-04-05T09:45:22.477Z,4.98
2023-04-05T09:49:07.021Z,5.11
2023-04-05T09:52:49.836Z,5.07
2023-04-05T09:56:37.300Z,5.08
2023-04-05T10:00:22.712Z,5.13
2023-04-05T10:04:05.663Z,5.26
2023-04-05T10:07:48.537Z,5.25
2023-04-05T10:11:31.381Z,5.25
2023-04-05T10:15:14.362Z,5.22
2023-04-05T10:18:58.417Z,5.22
2023-04-05T10:22:45.923Z,5.20
2023-04-05T10:26:37.915Z,5.22
2023-04-05T10:30:20.798Z,5.31
2023-04-05T10:34:06.778Z,5.27
2023-04-05T10:37:58.212Z,5.25
2023-04-05T10:41:44.397Z,5.24
2023-04-05T10:45:28.618Z,5.13
2023-04-05T10:49:20.907Z,5.14
2023-04-05T10:53:04.186Z,5.32
2023-04-05T10:56:47.068Z,5.36
2023-04-05T11:00:30.214Z,5.44
2023-04-05T11:04:15.297Z,5.48
2023-04-05T11:08:01.978Z,5.66
2023-04-05T11:11:45.858Z,5.67
2023-04-05T11:15:33.020Z,5.68
2023-04-05T11:19:18.760Z,5.65
2023-04-05T11:23:01.388Z,5.83
2023-04-05T11:26:57.572Z,5.94
2023-04-05T11:30:47.788Z,6.29
2023-04-05T11:34:37.614Z,6.28
2023-04-05T11:38:23.230Z,6.51
2023-04-05T11:42:07.529Z,6.45
2023-04-05T11:45:50.252Z,6.58
2023-04-05T11:49:34.715Z,6.61
2023-04-05T11:53:18.473Z,6.60
2023-04-05T11:57:01.961Z,6.72
2023-04-05T12:00:45.936Z,6.84
2023-04-05T12:04:28.611Z,7.02
2023-04-05T12:08:12.713Z,7.04
2023-04-05T12:11:56.452Z,7.05
2023-04-05T12:15:40.736Z,7.12
2023-04-05T12:19:23.842Z,7.13
2023-04-05T12:23:06.473Z,7.13
2023-04-05T12:26:50.534Z,7.36
2023-04-05T12:30:36.603Z,7.57
2023-04-05T12:34:25.775Z,7.55
2023-04-05T12:38:10.345Z,7.81
2023-04-05T12:42:01.291Z,8.11
2023-04-05T12:45:44.562Z,8.34
2023-04-05T12:49:28.870Z,8.62
2023-04-05T12:53:17.927Z,8.98
2023-04-05T12:57:04.175Z,9.23
2023-04-05T13:00:47.161Z,9.31
2023-04-05T13:04:32.565Z,9.52
2023-04-05T13:08:15.548Z,9.46
2023-04-05T13:11:58.385Z,9.45
2023-04-05T13:15:42.621Z,9.54
2023-04-05T13:19:25.741Z,9.55
2023-04-05T13:23:11.001Z,9.36
2023-04-05T13:26:53.660Z,9.32
2023-04-05T13:30:36.402Z,9.40
2023-04-05T13:34:20.478Z,9.62
2023-04-05T13:38:04.562Z,9.69
2023-04-05T13:41:47.561Z,9.97
2023-04-05T13:45:31.384Z,10.27
2023-04-05T13:49:14.024Z,10.46
2023-04-05T13:52:58.019Z,10.81
2023-04-05T13:56:40.865Z,11.21
2023-04-05T14:00:23.809Z,11.35
2023-04-05T14:04:06.576Z,11.44
2023-04-05T14:07:52.058Z,11.36
2023-04-05T14:11:36.375Z,11.40
2023-04-05T14:15:19.194Z,11.64
2023-04-05T14:19:01.939Z,11.80
2023-04-05T14:22:44.717Z,11.76
2023-04-05T14:26:28.785Z,11.64
2023-04-05T14:30:13.985Z,11.89
2023-04-05T14:33:56.789Z,12.11
2023-04-05T14:37:39.706Z,12.40
2023-04-05T14:41:22.465Z,12.49
2023-04-05T14:45:05.573Z,12.33
2023-04-05T14:48:49.662Z,12.40
2023-04-05T14:52:32.398Z,12.79
2023-04-05T14:56:15.146Z,13.21
2023-04-05T14:59:57.976Z,13.50
2023-04-05T15:03:40.935Z,13.75
2023-04-05T15:07:25.200Z,13.93
2023-04-05T15:11:08.112Z,13.88
2023-04-05T15:14:52.831Z,13.97
2023-04-05T15:18:35.737Z,13.76
2023-04-05T15:22:20.634Z,13.98
2023-04-05T15:26:04.825Z,14.51
2023-04-05T15:29:47.585Z,14.85
2023-04-05T15:33:30.353Z,15.28
2023-04-05T15:37:13.232Z,15.69
2023-04-05T15:40:57.859Z,15.95
2023-04-05T15:44:43.070Z,16.10
2023-04-05T15:48:25.890Z,16.24
2023-04-05T15:52:09.919Z,16.30
2023-04-05T15:55:52.691Z,16.20
2023-04-05T15:59:35.487Z,16.07
2023-04-05T16:03:19.781Z,16.07
2023-04-05T16:07:02.525Z,15.91
2023-04-05T16:10:45.408Z,15.73
2023-04-05T16:14:28.415Z,15.46
2023-04-05T16:18:14.152Z,14.78
2023-04-05T16:22:00.017Z,14.05
2023-04-05T16:25:42.813Z,13.93
2023-04-05T16:29:25.619Z,13.60
2023-04-05T16:33:08.590Z,13.16
2023-04-05T16:36:51.582Z,12.89
2023-04-05T16:40:35.674Z,12.80
2023-04-05T16:44:18.401Z,12.63
2023-04-05T16:48:01.302Z,12.39
2023-04-05T16:51:44.058Z,11.94
2023-04-05T16:55:26.815Z,11.56
2023-04-05T16:59:11.197Z,11.17
2023-04-05T17:02:54.814Z,10.88
2023-04-05T17:06:38.029Z,10.63
2023-04-05T17:10:20.718Z,10.26
2023-04-05T17:14:03.457Z,10.04
2023-04-05T17:17:47.567Z,9.82
2023-04-05T17:21:30.284Z,9.61
2023-04-05T17:25:13.027Z,9.35
2023-04-05T17:28:58.767Z,9.22
2023-04-05T17:32:41.588Z,9.05
2023-04-05T17:36:26.054Z,8.90
2023-04-05T17:40:09.734Z,8.86
2023-04-05T17:43:52.501Z,8.75
2023-04-05T17:47:35.892Z,8.51
2023-04-05T17:51:20.568Z,8.33
2023-04-05T17:55:05.087Z,8.17
2023-04-05T17:58:48.480Z,8.06
2023-04-05T18:02:31.329Z,7.96
2023-04-05T18:06:14.122Z,7.78
2023-04-05T18:09:56.932Z,7.63
2023-04-05T18:13:41.063Z,7.47
2023-04-05T18:17:23.814Z,7.37
2023-04-05T18:21:06.710Z,7.29
2023-04-05T18:24:49.457Z,7.22
2023-04-05T18:28:32.231Z,7.15
2023-04-05T18:32:16.613Z,7.05
2023-04-05T18:35:59.479Z,6.96
2023-04-05T18:39:42.213Z,6.78
2023-04-05T18:43:24.990Z,6.67
2023-04-05T18:47:07.835Z,6.66
2023-04-05T18:50:51.966Z,6.63
2023-04-05T18:54:34.750Z,6.56
2023-04-05T18:58:17.478Z,6.52
2023-04-05T19:02:00.273Z,6.47
2023-04-05T19:05:43.061Z,6.36
2023-04-05T19:09:27.311Z,6.28
2023-04-05T19:13:10.041Z,6.23
2023-04-05T19:16:52.795Z,6.19
2023-04-05T19:20:35.543Z,6.15
2023-04-05T19:24:20.791Z,6.07
2023-04-05T19:28:05.041Z,5.99
2023-04-05T19:31:48.070Z,5.87
2023-04-05T19:35:32.342Z,5.82
2023-04-05T19:39:15.326Z,5.76
2023-04-05T19:42:59.648Z,5.71
2023-04-05T19:46:43.860Z,5.64
2023-04-05T19:50:51.796Z,5.61
2023-04-05T19:54:34.693Z,5.61
2023-04-05T19:58:27.559Z,5.61
2023-04-05T20:02:25.052Z,5.59
2023-04-05T20:06:09.775Z,5.54
2023-04-05T20:09:53.203Z,5.52
2023-04-05T20:13:43.195Z,5.49
2023-04-05T20:17:28.385Z,5.44
2023-04-05T20:21:12.052Z,5.40
2023-04-05T20:24:54.827Z,5.41
2023-04-05T20:28:39.484Z,5.39
2023-04-05T20:32:23.152Z,5.36
2023-04-05T20:36:10.851Z,5.33
2023-04-05T20:39:54.399Z,5.32
2023-04-05T20:43:37.212Z,5.27
2023-04-05T20:47:19.939Z,5.23
2023-04-05T20:51:04.605Z,5.18
2023-04-05T20:54:49.830Z,4.84
2023-04-05T20:58:32.640Z,4.63
2023-04-05T21:02:15.428Z,4.66
2023-04-05T21:05:58.352Z,4.74
2023-04-05T21:09:41.114Z,4.74
2023-04-05T21:13:26.127Z,4.75
2023-04-05T21:17:08.890Z,4.75
2023-04-05T21:20:52.493Z,4.75
2023-04-05T21:24:35.335Z,4.73
2023-04-05T21:28:18.218Z,4.72
2023-04-05T21:32:02.335Z,4.64
2023-04-05T21:35:45.121Z,4.59
2023-04-05T21:39:27.890Z,4.54
2023-04-05T21:43:10.677Z,4.53
2023-04-05T21:46:53.424Z,4.48
2023-04-05T21:50:38.265Z,4.45
2023-04-05T21:54:21.012Z,4.41
2023-04-05T21:58:03.750Z,4.39
2023-04-05T22:01:46.536Z,4.33
2023-04-05T22:05:37.344Z,4.31
2023-04-05T22:09:22.961Z,4.29
2023-04-05T22:13:05.904Z,4.20
2023-04-05T22:16:48.716Z,4.12
2023-04-05T22:20:31.853Z,4.06
2023-04-05T22:24:15.510Z,4.00
2023-04-05T22:28:00.604Z,3.92
2023-04-05T22:31:43.443Z,3.88
2023-04-05T22:35:26.267Z,3.81
2023-04-05T22:39:09.295Z,3.77
2023-04-05T22:42:52.158Z,3.70
2023-04-05T22:46:37.591Z,3.61
2023-04-05T22:50:20.539Z,3.61
2023-04-05T22:54:03.312Z,3.66
2023-04-05T22:57:46.080Z,3.69
2023-04-05T23:01:28.894Z,3.65
2023-04-05T23:05:13.136Z,3.62
2023-04-05T23:08:55.925Z,3.55
2023-04-05T23:12:38.756Z,3.53
2023-04-05T23:16:21.960Z,3.48
2023-04-05T23:20:05.831Z,3.46
2023-04-05T23:23:49.978Z,3.41
2023-04-05T23:27:32.964Z,3.38
2023-04-05T23:31:15.853Z,3.34
2023-04-05T23:34:58.553Z,3.28
2023-04-05T23:38:41.266Z,3.25
2023-04-05T23:42:25.481Z,3.20
2023-04-05T23:46:08.414Z,3.14
2023-04-05T23:49:51.112Z,3.07
2023-04-05T23:53:33.895Z,3.01
2023-04-05T23:57:16.783Z,2.99
